sensor_id;sensor_type;location;lat;lon;timestamp;pressure;altitude;pressure_sealevel;temperature;humidity
21900;BME280;11114;50.658;12.704;2023-05-20T00:01:21;96579.06;;;13.95;65.12
21900;BME280;11114;50.658;12.704;2023-05-20T00:04:10;96570.88;;;13.90;65.24
21900;BME280;11114;50.658;12.704;2023-05-20T00:06:58;96578.91;;;13.89;65.31
21900;BME280;11114;50.658;12.704;2023-05-20T00:09:45;96595.31;;;13.91;65.33
21900;BME280;11114;50.658;12.704;2023-05-20T00:12:32;96599.09;;;13.88;65.31
21900;BME280;11114;50.658;12.704;2023-05-20T00:15:21;96602.84;;;13.94;65.14
21900;BME280;11114;50.658;12.704;2023-05-20T00:18:08;96608.59;;;13.97;65.03
21900;BME280;11114;50.658;12.704;2023-05-20T00:20:57;96601.88;;;13.95;65.30
21900;BME280;11114;50.658;12.704;2023-05-20T00:23:44;96594.78;;;14.03;65.15
21900;BME280;11114;50.658;12.704;2023-05-20T00:26:32;96589.03;;;13.99;65.27
21900;BME280;11114;50.658;12.704;2023-05-20T00:29:20;96593.78;;;14.04;64.98
21900;BME280;11114;50.658;12.704;2023-05-20T00:32:08;96595.09;;;14.00;65.02
21900;BME280;11114;50.658;12.704;2023-05-20T00:34:56;96592.00;;;13.96;65.18
21900;BME280;11114;50.658;12.704;2023-05-20T00:37:44;96597.25;;;13.89;65.64
21900;BME280;11114;50.658;12.704;2023-05-20T00:40:31;96599.25;;;13.79;66.08
21900;BME280;11114;50.658;12.704;2023-05-20T00:43:18;96594.69;;;13.73;66.11
21900;BME280;11114;50.658;12.704;2023-05-20T00:46:06;96615.38;;;13.68;66.59
21900;BME280;11114;50.658;12.704;2023-05-20T00:48:55;96604.88;;;13.60;66.88
21900;BME280;11114;50.658;12.704;2023-05-20T00:51:43;96601.09;;;13.54;67.16
21900;BME280;11114;50.658;12.704;2023-05-20T00:54:31;96600.28;;;13.54;67.33
21900;BME280;11114;50.658;12.704;2023-05-20T00:57:19;96603.06;;;13.52;67.34
21900;BME280;11114;50.658;12.704;2023-05-20T01:00:06;96595.38;;;13.59;67.03
21900;BME280;11114;50.658;12.704;2023-05-20T01:02:57;96593.06;;;13.56;67.28
21900;BME280;11114;50.658;12.704;2023-05-20T01:05:47;96598.00;;;13.51;69.88
21900;BME280;11114;50.658;12.704;2023-05-20T01:08:36;96598.31;;;13.48;67.81
21900;BME280;11114;50.658;12.704;2023-05-20T01:11:37;96596.34;;;13.50;69.44
21900;BME280;11114;50.658;12.704;2023-05-20T01:14:33;96598.97;;;13.50;67.77
21900;BME280;11114;50.658;12.704;2023-05-20T01:17:24;96591.25;;;13.48;68.10
21900;BME280;11114;50.658;12.704;2023-05-20T01:20:14;96598.81;;;13.43;68.38
21900;BME280;11114;50.658;12.704;2023-05-20T01:23:02;96595.84;;;13.38;68.83
21900;BME280;11114;50.658;12.704;2023-05-20T01:25:50;96601.44;;;13.35;69.18
21900;BME280;11114;50.658;12.704;2023-05-20T01:28:37;96600.28;;;13.38;68.77
21900;BME280;11114;50.658;12.704;2023-05-20T01:31:31;96596.38;;;13.42;68.53
21900;BME280;11114;50.658;12.704;2023-05-20T01:34:20;96589.63;;;13.39;68.77
21900;BME280;11114;50.658;12.704;2023-05-20T01:37:08;96596.69;;;13.39;69.10
21900;BME280;11114;50.658;12.704;2023-05-20T01:39:56;96596.69;;;13.39;69.04
21900;BME280;11114;50.658;12.704;2023-05-20T01:42:45;96589.13;;;13.36;69.28
21900;BME280;11114;50.658;12.704;2023-05-20T01:45:40;96585.72;;;13.35;69.17
21900;BME280;11114;50.658;12.704;2023-05-20T01:48:27;96584.72;;;13.36;69.00
21900;BME280;11114;50.658;12.704;2023-05-20T01:51:16;96583.56;;;13.39;68.97
21900;BME280;11114;50.658;12.704;2023-05-20T01:54:04;96572.41;;;13.37;69.02
21900;BME280;11114;50.658;12.704;2023-05-20T01:56:52;96566.69;;;13.33;69.29
21900;BME280;11114;50.658;12.704;2023-05-20T01:59:41;96569.50;;;13.32;69.40
21900;BME280;11114;50.658;12.704;2023-05-20T02:02:30;96566.19;;;13.30;69.58
21900;BME280;11114;50.658;12.704;2023-05-20T02:05:17;96557.19;;;13.24;69.78
21900;BME280;11114;50.658;12.704;2023-05-20T02:08:04;96563.25;;;13.25;70.03
21900;BME280;11114;50.658;12.704;2023-05-20T02:10:53;96566.88;;;13.24;69.92
21900;BME280;11114;50.658;12.704;2023-05-20T02:13:42;96560.97;;;13.22;70.01
21900;BME280;11114;50.658;12.704;2023-05-20T02:16:30;96551.47;;;13.21;69.60
21900;BME280;11114;50.658;12.704;2023-05-20T02:19:17;96553.91;;;13.30;69.23
21900;BME280;11114;50.658;12.704;2023-05-20T02:22:09;96550.97;;;13.33;68.83
21900;BME280;11114;50.658;12.704;2023-05-20T02:24:57;96558.16;;;13.39;68.56
21900;BME280;11114;50.658;12.704;2023-05-20T02:27:44;96559.78;;;13.48;68.21
21900;BME280;11114;50.658;12.704;2023-05-20T02:30:34;96565.38;;;13.53;67.86
21900;BME280;11114;50.658;12.704;2023-05-20T02:33:23;96564.88;;;13.58;67.69
21900;BME280;11114;50.658;12.704;2023-05-20T02:36:10;96566.66;;;13.49;67.79
21900;BME280;11114;50.658;12.704;2023-05-20T02:38:57;96579.00;;;13.41;68.32
21900;BME280;11114;50.658;12.704;2023-05-20T02:41:44;96578.34;;;13.31;68.75
21900;BME280;11114;50.658;12.704;2023-05-20T02:44:32;96564.25;;;13.24;69.01
21900;BME280;11114;50.658;12.704;2023-05-20T02:47:19;96565.38;;;13.29;69.06
21900;BME280;11114;50.658;12.704;2023-05-20T02:50:07;96562.59;;;13.31;68.96
21900;BME280;11114;50.658;12.704;2023-05-20T02:52:54;96556.69;;;13.21;69.53
21900;BME280;11114;50.658;12.704;2023-05-20T02:55:41;96553.78;;;13.16;69.61
21900;BME280;11114;50.658;12.704;2023-05-20T02:58:28;96545.22;;;13.22;69.36
21900;BME280;11114;50.658;12.704;2023-05-20T03:01:17;96542.13;;;13.26;69.42
21900;BME280;11114;50.658;12.704;2023-05-20T03:04:04;96543.41;;;13.30;69.15
21900;BME280;11114;50.658;12.704;2023-05-20T03:06:51;96543.91;;;13.26;69.40
21900;BME280;11114;50.658;12.704;2023-05-20T03:09:40;96544.09;;;13.24;69.36
21900;BME280;11114;50.658;12.704;2023-05-20T03:12:30;96546.38;;;13.27;69.23
21900;BME280;11114;50.658;12.704;2023-05-20T03:15:17;96547.84;;;13.22;69.60
21900;BME280;11114;50.658;12.704;2023-05-20T03:18:04;96542.75;;;13.13;70.03
21900;BME280;11114;50.658;12.704;2023-05-20T03:20:53;96548.66;;;13.07;70.32
21900;BME280;11114;50.658;12.704;2023-05-20T03:23:39;96552.44;;;13.04;70.28
21900;BME280;11114;50.658;12.704;2023-05-20T03:26:26;96547.03;;;12.98;70.90
21900;BME280;11114;50.658;12.704;2023-05-20T03:29:13;96552.75;;;12.93;70.85
21900;BME280;11114;50.658;12.704;2023-05-20T03:32:00;96556.03;;;12.95;70.87
21900;BME280;11114;50.658;12.704;2023-05-20T03:34:48;96563.91;;;12.95;70.85
21900;BME280;11114;50.658;12.704;2023-05-20T03:37:35;96557.50;;;12.98;70.69
21900;BME280;11114;50.658;12.704;2023-05-20T03:40:22;96556.72;;;13.05;70.65
21900;BME280;11114;50.658;12.704;2023-05-20T03:43:08;96551.13;;;13.08;70.66
21900;BME280;11114;50.658;12.704;2023-05-20T03:45:55;96544.09;;;13.09;70.73
21900;BME280;11114;50.658;12.704;2023-05-20T03:48:42;96551.28;;;13.14;70.29
21900;BME280;11114;50.658;12.704;2023-05-20T03:51:29;96557.38;;;13.15;70.18
21900;BME280;11114;50.658;12.704;2023-05-20T03:54:23;96554.41;;;13.18;70.18
21900;BME280;11114;50.658;12.704;2023-05-20T03:57:11;96546.72;;;13.16;70.26
21900;BME280;11114;50.658;12.704;2023-05-20T03:59:58;96556.38;;;13.24;70.09
21900;BME280;11114;50.658;12.704;2023-05-20T04:02:45;96573.22;;;13.29;69.92
21900;BME280;11114;50.658;12.704;2023-05-20T04:05:38;96571.44;;;13.22;70.49
21900;BME280;11114;50.658;12.704;2023-05-20T04:08:33;96567.69;;;13.16;70.47
21900;BME280;11114;50.658;12.704;2023-05-20T04:11:22;96574.38;;;13.19;70.41
21900;BME280;11114;50.658;12.704;2023-05-20T04:14:11;96570.97;;;13.18;70.11
21900;BME280;11114;50.658;12.704;2023-05-20T04:17:02;96555.91;;;13.20;70.48
21900;BME280;11114;50.658;12.704;2023-05-20T04:19:51;96562.94;;;13.20;70.41
21900;BME280;11114;50.658;12.704;2023-05-20T04:22:38;96563.59;;;13.30;70.25
21900;BME280;11114;50.658;12.704;2023-05-20T04:25:25;96561.28;;;13.35;70.18
21900;BME280;11114;50.658;12.704;2023-05-20T04:28:13;96565.22;;;13.39;70.31
21900;BME280;11114;50.658;12.704;2023-05-20T04:31:03;96560.16;;;13.37;70.46
21900;BME280;11114;50.658;12.704;2023-05-20T04:33:53;96549.78;;;13.44;70.31
21900;BME280;11114;50.658;12.704;2023-05-20T04:36:40;96553.72;;;13.48;70.36
21900;BME280;11114;50.658;12.704;2023-05-20T04:39:27;96552.41;;;13.60;70.26
21900;BME280;11114;50.658;12.704;2023-05-20T04:42:15;96556.50;;;13.62;70.38
21900;BME280;11114;50.658;12.704;2023-05-20T04:45:05;96559.09;;;13.70;69.62
21900;BME280;11114;50.658;12.704;2023-05-20T04:47:54;96554.34;;;13.66;69.96
21900;BME280;11114;50.658;12.704;2023-05-20T04:50:42;96552.41;;;13.60;70.26
21900;BME280;11114;50.658;12.704;2023-05-20T04:53:29;96549.44;;;13.55;70.63
21900;BME280;11114;50.658;12.704;2023-05-20T04:56:19;96545.69;;;13.49;70.69
21900;BME280;11114;50.658;12.704;2023-05-20T04:59:07;96545.84;;;13.56;70.65
21900;BME280;11114;50.658;12.704;2023-05-20T05:01:58;96540.75;;;13.62;70.65
21900;BME280;11114;50.658;12.704;2023-05-20T05:04:45;96539.59;;;13.65;70.71
21900;BME280;11114;50.658;12.704;2023-05-20T05:07:33;96541.22;;;13.74;70.50
21900;BME280;11114;50.658;12.704;2023-05-20T05:10:20;96541.53;;;13.79;70.28
21900;BME280;11114;50.658;12.704;2023-05-20T05:13:08;96540.91;;;13.77;70.36
21900;BME280;11114;50.658;12.704;2023-05-20T05:15:59;96542.34;;;13.79;70.69
21900;BME280;11114;50.658;12.704;2023-05-20T05:18:47;96547.59;;;13.87;70.27
21900;BME280;11114;50.658;12.704;2023-05-20T05:21:35;96547.72;;;13.94;70.25
21900;BME280;11114;50.658;12.704;2023-05-20T05:24:21;96541.63;;;14.01;69.89
21900;BME280;11114;50.658;12.704;2023-05-20T05:27:11;96544.41;;;13.99;69.79
21900;BME280;11114;50.658;12.704;2023-05-20T05:29:57;96540.66;;;13.94;70.06
21900;BME280;11114;50.658;12.704;2023-05-20T05:32:44;96539.50;;;13.96;70.01
21900;BME280;11114;50.658;12.704;2023-05-20T05:35:31;96544.41;;;13.99;70.05
21900;BME280;11114;50.658;12.704;2023-05-20T05:38:19;96547.84;;;14.08;69.64
21900;BME280;11114;50.658;12.704;2023-05-20T05:41:05;96548.00;;;14.06;69.73
21900;BME280;11114;50.658;12.704;2023-05-20T05:43:53;96539.97;;;14.08;69.97
21900;BME280;11114;50.658;12.704;2023-05-20T05:46:39;96538.47;;;14.13;69.83
21900;BME280;11114;50.658;12.704;2023-05-20T05:49:26;96539.78;;;14.17;69.72
21900;BME280;11114;50.658;12.704;2023-05-20T05:52:12;96544.19;;;14.25;69.63
21900;BME280;11114;50.658;12.704;2023-05-20T05:55:00;96543.31;;;14.32;69.40
21900;BME280;11114;50.658;12.704;2023-05-20T05:57:48;96555.47;;;14.33;69.07
21900;BME280;11114;50.658;12.704;2023-05-20T06:00:34;96546.59;;;14.34;69.22
21900;BME280;11114;50.658;12.704;2023-05-20T06:03:21;96551.53;;;14.37;68.86
21900;BME280;11114;50.658;12.704;2023-05-20T06:06:07;96551.34;;;14.39;68.75
21900;BME280;11114;50.658;12.704;2023-05-20T06:08:54;96551.81;;;14.42;68.71
21900;BME280;11114;50.658;12.704;2023-05-20T06:11:41;96553.75;;;14.48;68.25
21900;BME280;11114;50.658;12.704;2023-05-20T06:14:29;96547.53;;;14.41;68.60
21900;BME280;11114;50.658;12.704;2023-05-20T06:17:18;96548.50;;;14.48;68.54
21900;BME280;11114;50.658;12.704;2023-05-20T06:20:05;96544.22;;;14.55;68.44
21900;BME280;11114;50.658;12.704;2023-05-20T06:22:52;96544.97;;;14.64;68.64
21900;BME280;11114;50.658;12.704;2023-05-20T06:25:41;96532.94;;;14.69;68.15
21900;BME280;11114;50.658;12.704;2023-05-20T06:28:28;96530.97;;;14.71;68.32
21900;BME280;11114;50.658;12.704;2023-05-20T06:31:16;96541.47;;;14.71;68.34
21900;BME280;11114;50.658;12.704;2023-05-20T06:34:02;96529.28;;;14.78;68.57
21900;BME280;11114;50.658;12.704;2023-05-20T06:36:49;96531.19;;;14.84;68.80
21900;BME280;11114;50.658;12.704;2023-05-20T06:39:36;96523.63;;;14.89;68.48
21900;BME280;11114;50.658;12.704;2023-05-20T06:42:23;96525.25;;;14.90;68.50
21900;BME280;11114;50.658;12.704;2023-05-20T06:45:21;96530.06;;;15.01;68.54
21900;BME280;11114;50.658;12.704;2023-05-20T06:48:11;96529.97;;;15.17;68.36
21900;BME280;11114;50.658;12.704;2023-05-20T06:50:57;96526.69;;;15.37;68.01
21900;BME280;11114;50.658;12.704;2023-05-20T06:53:44;96523.09;;;15.53;67.30
21900;BME280;11114;50.658;12.704;2023-05-20T06:56:32;96525.91;;;15.65;67.14
21900;BME280;11114;50.658;12.704;2023-05-20T06:59:18;96516.41;;;15.79;66.51
21900;BME280;11114;50.658;12.704;2023-05-20T07:02:05;96514.97;;;15.91;66.12
21900;BME280;11114;50.658;12.704;2023-05-20T07:04:52;96522.31;;;16.10;66.08
21900;BME280;11114;50.658;12.704;2023-05-20T07:07:38;96517.00;;;16.39;65.85
21900;BME280;11114;50.658;12.704;2023-05-20T07:10:25;96519.34;;;16.62;64.77
21900;BME280;11114;50.658;12.704;2023-05-20T07:13:11;96510.69;;;16.89;64.33
21900;BME280;11114;50.658;12.704;2023-05-20T07:15:57;96509.13;;;17.16;63.31
21900;BME280;11114;50.658;12.704;2023-05-20T07:18:46;96505.66;;;17.36;63.15
21900;BME280;11114;50.658;12.704;2023-05-20T07:21:32;96489.84;;;17.63;62.40
21900;BME280;11114;50.658;12.704;2023-05-20T07:24:41;96491.16;;;17.80;61.08
21900;BME280;11114;50.658;12.704;2023-05-20T07:27:28;96493.66;;;17.95;60.95
21900;BME280;11114;50.658;12.704;2023-05-20T07:30:15;96485.81;;;18.08;60.51
21900;BME280;11114;50.658;12.704;2023-05-20T07:33:10;96468.03;;;18.22;59.95
21900;BME280;11114;50.658;12.704;2023-05-20T07:35:57;96485.81;;;18.48;59.83
21900;BME280;11114;50.658;12.704;2023-05-20T07:38:44;96481.66;;;18.79;58.02
21900;BME280;11114;50.658;12.704;2023-05-20T07:41:49;96484.97;;;19.26;57.46
21900;BME280;11114;50.658;12.704;2023-05-20T07:44:36;96473.97;;;19.55;57.12
21900;BME280;11114;50.658;12.704;2023-05-20T07:47:22;96474.56;;;19.57;55.71
21900;BME280;11114;50.658;12.704;2023-05-20T07:50:10;96481.72;;;19.57;55.65
21900;BME280;11114;50.658;12.704;2023-05-20T07:52:56;96473.38;;;19.53;55.95
21900;BME280;11114;50.658;12.704;2023-05-20T07:55:45;96474.19;;;19.47;55.81
21900;BME280;11114;50.658;12.704;2023-05-20T07:58:32;96469.31;;;19.44;55.11
21900;BME280;11114;50.658;12.704;2023-05-20T08:01:24;96464.00;;;19.44;55.51
21900;BME280;11114;50.658;12.704;2023-05-20T08:04:12;96461.94;;;19.53;55.98
21900;BME280;11114;50.658;12.704;2023-05-20T08:07:04;96463.53;;;19.86;55.58
21900;BME280;11114;50.658;12.704;2023-05-20T08:10:09;96451.91;;;20.00;54.63
21900;BME280;11114;50.658;12.704;2023-05-20T08:12:56;96465.31;;;20.18;53.74
21900;BME280;11114;50.658;12.704;2023-05-20T08:15:46;96453.75;;;20.50;52.81
21900;BME280;11114;50.658;12.704;2023-05-20T08:18:36;96447.69;;;20.73;53.38
21900;BME280;11114;50.658;12.704;2023-05-20T08:21:39;96451.81;;;20.69;52.27
21900;BME280;11114;50.658;12.704;2023-05-20T08:24:28;96447.41;;;20.51;52.88
21900;BME280;11114;50.658;12.704;2023-05-20T08:27:17;96440.84;;;20.60;52.29
21900;BME280;11114;50.658;12.704;2023-05-20T08:30:10;96448.59;;;20.55;51.98
21900;BME280;11114;50.658;12.704;2023-05-20T08:32:59;96439.97;;;20.66;52.53
21900;BME280;11114;50.658;12.704;2023-05-20T08:35:48;96436.72;;;20.64;51.47
21900;BME280;11114;50.658;12.704;2023-05-20T08:38:35;96431.41;;;20.64;51.78
21900;BME280;11114;50.658;12.704;2023-05-20T08:41:22;96435.66;;;20.34;52.16
21900;BME280;11114;50.658;12.704;2023-05-20T08:44:10;96433.66;;;20.29;52.15
21900;BME280;11114;50.658;12.704;2023-05-20T08:46:58;96429.38;;;20.22;52.52
21900;BME280;11114;50.658;12.704;2023-05-20T08:49:49;96430.59;;;20.26;52.99
21900;BME280;11114;50.658;12.704;2023-05-20T08:52:37;96426.00;;;20.46;53.19
21900;BME280;11114;50.658;12.704;2023-05-20T08:55:48;96429.38;;;20.66;51.76
21900;BME280;11114;50.658;12.704;2023-05-20T08:58:38;96415.03;;;20.73;53.98
21900;BME280;11114;50.658;12.704;2023-05-20T09:01:25;96414.31;;;20.90;53.14
21900;BME280;11114;50.658;12.704;2023-05-20T09:04:11;96412.41;;;21.28;52.63
21900;BME280;11114;50.658;12.704;2023-05-20T09:06:59;96419.44;;;21.41;52.11
21900;BME280;11114;50.658;12.704;2023-05-20T09:09:45;96416.41;;;21.37;51.52
21900;BME280;11114;50.658;12.704;2023-05-20T09:12:32;96418.06;;;21.07;51.52
21900;BME280;11114;50.658;12.704;2023-05-20T09:15:19;96413.28;;;20.61;51.92
21900;BME280;11114;50.658;12.704;2023-05-20T09:18:06;96415.66;;;20.38;53.03
21900;BME280;11114;50.658;12.704;2023-05-20T09:20:54;96424.31;;;20.14;52.74
21900;BME280;11114;50.658;12.704;2023-05-20T09:23:46;96415.59;;;19.94;53.84
21900;BME280;11114;50.658;12.704;2023-05-20T09:26:50;96413.38;;;19.97;54.19
21900;BME280;11114;50.658;12.704;2023-05-20T09:29:39;96407.09;;;19.79;54.25
21900;BME280;11114;50.658;12.704;2023-05-20T09:32:34;96404.28;;;19.74;54.74
21900;BME280;11114;50.658;12.704;2023-05-20T09:35:21;96398.13;;;19.80;55.03
21900;BME280;11114;50.658;12.704;2023-05-20T09:38:09;96400.00;;;19.73;55.64
21900;BME280;11114;50.658;12.704;2023-05-20T09:40:56;96398.94;;;19.81;55.33
21900;BME280;11114;50.658;12.704;2023-05-20T09:43:51;96395.47;;;19.86;55.59
21900;BME280;11114;50.658;12.704;2023-05-20T09:46:39;96393.38;;;20.08;55.37
21900;BME280;11114;50.658;12.704;2023-05-20T09:49:46;96387.16;;;20.27;55.04
21900;BME280;11114;50.658;12.704;2023-05-20T09:52:34;96383.63;;;20.39;55.08
21900;BME280;11114;50.658;12.704;2023-05-20T09:55:23;96377.03;;;20.48;55.46
21900;BME280;11114;50.658;12.704;2023-05-20T09:58:12;96368.03;;;20.86;56.00
21900;BME280;11114;50.658;12.704;2023-05-20T10:01:01;96366.00;;;21.31;54.91
21900;BME280;11114;50.658;12.704;2023-05-20T10:03:48;96358.16;;;21.78;54.47
21900;BME280;11114;50.658;12.704;2023-05-20T10:22:09;96356.59;;;23.63;50.29
21900;BME280;11114;50.658;12.704;2023-05-20T10:25:03;96357.66;;;23.73;48.27
21900;BME280;11114;50.658;12.704;2023-05-20T10:28:09;96364.00;;;23.61;48.75
21900;BME280;11114;50.658;12.704;2023-05-20T10:31:20;96344.34;;;23.39;48.57
21900;BME280;11114;50.658;12.704;2023-05-20T10:34:17;96344.22;;;23.23;49.41
21900;BME280;11114;50.658;12.704;2023-05-20T10:37:05;96347.81;;;23.05;50.05
21900;BME280;11114;50.658;12.704;2023-05-20T10:40:04;96334.59;;;23.10;50.20
21900;BME280;11114;50.658;12.704;2023-05-20T10:42:50;96341.56;;;23.11;50.19
21900;BME280;11114;50.658;12.704;2023-05-20T10:45:52;96335.91;;;23.42;49.37
21900;BME280;11114;50.658;12.704;2023-05-20T10:48:41;96332.50;;;23.69;49.99
21900;BME280;11114;50.658;12.704;2023-05-20T10:51:28;96340.47;;;24.04;49.69
21900;BME280;11114;50.658;12.704;2023-05-20T10:54:16;96338.94;;;24.63;48.83
21900;BME280;11114;50.658;12.704;2023-05-20T10:57:07;96334.69;;;25.44;47.65
21900;BME280;11114;50.658;12.704;2023-05-20T10:59:55;96322.88;;;25.99;46.04
21900;BME280;11114;50.658;12.704;2023-05-20T11:03:05;96320.81;;;26.28;45.01
21900;BME280;11114;50.658;12.704;2023-05-20T11:05:52;96325.56;;;26.68;43.48
21900;BME280;11114;50.658;12.704;2023-05-20T11:08:38;96319.69;;;26.71;42.32
21900;BME280;11114;50.658;12.704;2023-05-20T11:11:24;96321.75;;;26.91;39.56
21900;BME280;11114;50.658;12.704;2023-05-20T11:14:11;96312.00;;;26.80;37.62
21900;BME280;11114;50.658;12.704;2023-05-20T11:16:59;96307.94;;;26.77;38.66
21900;BME280;11114;50.658;12.704;2023-05-20T11:19:47;96317.34;;;26.80;38.34
21900;BME280;11114;50.658;12.704;2023-05-20T11:22:33;96312.81;;;26.54;37.88
21900;BME280;11114;50.658;12.704;2023-05-20T11:25:23;96305.38;;;26.35;38.81
21900;BME280;11114;50.658;12.704;2023-05-20T11:28:13;96298.31;;;26.50;39.58
21900;BME280;11114;50.658;12.704;2023-05-20T11:31:00;96295.81;;;26.70;39.04
21900;BME280;11114;50.658;12.704;2023-05-20T11:33:46;96310.00;;;26.18;37.58
21900;BME280;11114;50.658;12.704;2023-05-20T11:36:33;96305.31;;;25.66;38.17
21900;BME280;11114;50.658;12.704;2023-05-20T11:39:19;96297.88;;;25.51;40.35
21900;BME280;11114;50.658;12.704;2023-05-20T11:42:06;96301.47;;;25.78;39.65
21900;BME280;11114;50.658;12.704;2023-05-20T11:44:52;96294.91;;;25.85;39.12
21900;BME280;11114;50.658;12.704;2023-05-20T11:47:38;96302.44;;;25.88;40.20
21900;BME280;11114;50.658;12.704;2023-05-20T11:50:25;96296.56;;;25.91;39.28
21900;BME280;11114;50.658;12.704;2023-05-20T11:53:19;96291.78;;;25.93;38.74
21900;BME280;11114;50.658;12.704;2023-05-20T11:56:06;96293.00;;;26.07;38.94
21900;BME280;11114;50.658;12.704;2023-05-20T11:58:59;96300.09;;;26.18;38.64
21900;BME280;11114;50.658;12.704;2023-05-20T12:01:45;96295.56;;;26.19;38.70
21900;BME280;11114;50.658;12.704;2023-05-20T12:04:31;96305.03;;;26.05;38.58
21900;BME280;11114;50.658;12.704;2023-05-20T12:07:17;96294.88;;;26.07;38.45
21900;BME280;11114;50.658;12.704;2023-05-20T12:10:04;96287.00;;;25.95;38.91
21900;BME280;11114;50.658;12.704;2023-05-20T12:12:55;96287.72;;;26.12;39.19
21900;BME280;11114;50.658;12.704;2023-05-20T12:15:42;96283.44;;;26.11;39.27
21900;BME280;11114;50.658;12.704;2023-05-20T12:18:30;96288.94;;;26.00;39.80
21900;BME280;11114;50.658;12.704;2023-05-20T12:21:17;96284.44;;;26.05;39.91
21900;BME280;11114;50.658;12.704;2023-05-20T12:24:03;96287.72;;;26.12;40.33
21900;BME280;11114;50.658;12.704;2023-05-20T12:26:51;96277.41;;;25.99;39.45
21900;BME280;11114;50.658;12.704;2023-05-20T12:29:38;96279.13;;;25.68;39.35
21900;BME280;11114;50.658;12.704;2023-05-20T12:32:24;96274.81;;;25.45;39.52
21900;BME280;11114;50.658;12.704;2023-05-20T12:35:11;96275.34;;;25.26;39.50
21900;BME280;11114;50.658;12.704;2023-05-20T12:37:59;96277.31;;;25.14;40.50
21900;BME280;11114;50.658;12.704;2023-05-20T12:40:46;96273.28;;;25.11;40.37
21900;BME280;11114;50.658;12.704;2023-05-20T12:43:32;96261.53;;;25.12;41.96
21900;BME280;11114;50.658;12.704;2023-05-20T12:46:21;96264.34;;;25.22;40.98
21900;BME280;11114;50.658;12.704;2023-05-20T12:49:09;96270.31;;;24.96;41.29
21900;BME280;11114;50.658;12.704;2023-05-20T12:51:55;96260.25;;;24.82;41.12
21900;BME280;11114;50.658;12.704;2023-05-20T12:54:42;96270.66;;;24.67;41.38
21900;BME280;11114;50.658;12.704;2023-05-20T12:57:29;96264.34;;;24.57;41.49
21900;BME280;11114;50.658;12.704;2023-05-20T13:00:16;96260.44;;;24.48;41.51
21900;BME280;11114;50.658;12.704;2023-05-20T13:03:02;96261.19;;;24.43;41.79
21900;BME280;11114;50.658;12.704;2023-05-20T13:05:49;96258.88;;;24.35;42.41
21900;BME280;11114;50.658;12.704;2023-05-20T13:08:36;96246.31;;;24.36;41.84
21900;BME280;11114;50.658;12.704;2023-05-20T13:11:22;96251.84;;;24.29;41.99
21900;BME280;11114;50.658;12.704;2023-05-20T13:14:09;96248.41;;;24.17;42.38
21900;BME280;11114;50.658;12.704;2023-05-20T13:16:56;96247.38;;;24.18;42.79
21900;BME280;11114;50.658;12.704;2023-05-20T13:19:45;96248.50;;;24.22;41.76
21900;BME280;11114;50.658;12.704;2023-05-20T13:22:32;96245.16;;;24.15;41.30
21900;BME280;11114;50.658;12.704;2023-05-20T13:25:19;96227.84;;;24.02;42.10
21900;BME280;11114;50.658;12.704;2023-05-20T13:28:06;96228.63;;;23.86;42.12
21900;BME280;11114;50.658;12.704;2023-05-20T13:30:52;96234.50;;;23.88;42.76
21900;BME280;11114;50.658;12.704;2023-05-20T13:33:39;96225.06;;;23.97;42.80
21900;BME280;11114;50.658;12.704;2023-05-20T13:36:26;96223.44;;;23.96;41.85
21900;BME280;11114;50.658;12.704;2023-05-20T13:39:14;96220.06;;;24.00;43.43
21900;BME280;11114;50.658;12.704;2023-05-20T13:42:01;96231.50;;;24.12;43.02
21900;BME280;11114;50.658;12.704;2023-05-20T13:44:50;96222.72;;;24.00;41.91
21900;BME280;11114;50.658;12.704;2023-05-20T13:47:36;96219.22;;;23.83;42.79
21900;BME280;11114;50.658;12.704;2023-05-20T13:50:25;96223.50;;;23.84;42.99
21900;BME280;11114;50.658;12.704;2023-05-20T13:53:12;96223.28;;;23.86;42.88
21900;BME280;11114;50.658;12.704;2023-05-20T13:55:59;96226.88;;;23.80;42.99
21900;BME280;11114;50.658;12.704;2023-05-20T13:58:45;96218.34;;;23.78;43.57
21900;BME280;11114;50.658;12.704;2023-05-20T14:01:32;96216.13;;;23.75;43.47
21900;BME280;11114;50.658;12.704;2023-05-20T14:04:18;96221.56;;;23.68;43.59
21900;BME280;11114;50.658;12.704;2023-05-20T14:07:07;96219.41;;;23.54;42.76
21900;BME280;11114;50.658;12.704;2023-05-20T14:09:55;96217.25;;;23.39;43.07
21900;BME280;11114;50.658;12.704;2023-05-20T14:12:42;96217.53;;;23.26;43.29
21900;BME280;11114;50.658;12.704;2023-05-20T14:15:33;96207.66;;;23.27;44.33
21900;BME280;11114;50.658;12.704;2023-05-20T14:18:21;96207.78;;;23.32;44.23
21900;BME280;11114;50.658;12.704;2023-05-20T14:21:10;96201.84;;;23.41;44.99
21900;BME280;11114;50.658;12.704;2023-05-20T14:23:57;96195.81;;;23.46;44.06
21900;BME280;11114;50.658;12.704;2023-05-20T14:26:44;96199.50;;;23.45;44.59
21900;BME280;11114;50.658;12.704;2023-05-20T14:29:30;96189.00;;;23.38;44.34
21900;BME280;11114;50.658;12.704;2023-05-20T14:32:17;96184.16;;;23.35;44.39
21900;BME280;11114;50.658;12.704;2023-05-20T14:35:04;96190.75;;;23.33;44.84
21900;BME280;11114;50.658;12.704;2023-05-20T14:37:51;96179.59;;;23.36;44.66
21900;BME280;11114;50.658;12.704;2023-05-20T14:40:37;96181.22;;;23.37;45.01
21900;BME280;11114;50.658;12.704;2023-05-20T14:43:23;96184.94;;;23.36;44.55
21900;BME280;11114;50.658;12.704;2023-05-20T14:46:11;96186.34;;;23.27;44.89
21900;BME280;11114;50.658;12.704;2023-05-20T14:48:57;96180.81;;;23.17;45.00
21900;BME280;11114;50.658;12.704;2023-05-20T14:51:44;96174.47;;;23.07;45.52
21900;BME280;11114;50.658;12.704;2023-05-20T14:54:34;96181.88;;;23.05;46.12
21900;BME280;11114;50.658;12.704;2023-05-20T14:57:20;96179.44;;;23.03;46.16